sensor_id;sensor_type;location;lat;lon;timestamp;P1;durP1;ratioP1;P2;durP2;ratioP2
22737;SDS011;11536;50.860;4.286;2024-02-14T00:00:05;5.18;;;1.95;;
22737;SDS011;11536;50.860;4.286;2024-02-14T00:02:35;8.95;;;2.80;;
22737;SDS011;11536;50.860;4.286;2024-02-14T00:05:01;7.53;;;2.95;;
22737;SDS011;11536;50.860;4.286;2024-02-14T00:07:28;10.02;;;3.40;;
22737;SDS011;11536;50.860;4.286;2024-02-14T00:09:53;7.00;;;2.58;;
22737;SDS011;11536;50.860;4.286;2024-02-14T00:12:19;8.18;;;3.30;;
22737;SDS011;11536;50.860;4.286;2024-02-14T00:14:45;10.18;;;2.95;;
22737;SDS011;11536;50.860;4.286;2024-02-14T00:17:11;10.82;;;3.13;;
22737;SDS011;11536;50.860;4.286;2024-02-14T00:19:37;8.27;;;2.75;;
22737;SDS011;11536;50.860;4.286;2024-02-14T00:22:03;11.98;;;3.78;;
22737;SDS011;11536;50.860;4.286;2024-02-14T00:24:28;9.65;;;3.22;;
22737;SDS011;11536;50.860;4.286;2024-02-14T00:26:54;9.90;;;3.15;;
22737;SDS011;11536;50.860;4.286;2024-02-14T00:29:21;8.60;;;3.25;;
22737;SDS011;11536;50.860;4.286;2024-02-14T00:31:49;8.55;;;3.05;;
22737;SDS011;11536;50.860;4.286;2024-02-14T00:34:14;8.45;;;2.97;;
22737;SDS011;11536;50.860;4.286;2024-02-14T00:36:40;11.90;;;3.13;;
22737;SDS011;11536;50.860;4.286;2024-02-14T00:39:06;8.63;;;3.28;;
22737;SDS011;11536;50.860;4.286;2024-02-14T00:41:34;8.82;;;2.78;;
22737;SDS011;11536;50.860;4.286;2024-02-14T00:44:01;7.97;;;2.90;;
22737;SDS011;11536;50.860;4.286;2024-02-14T00:46:28;7.18;;;2.80;;
22737;SDS011;11536;50.860;4.286;2024-02-14T00:48:54;8.15;;;2.97;;
22737;SDS011;11536;50.860;4.286;2024-02-14T00:51:20;10.23;;;3.67;;
22737;SDS011;11536;50.860;4.286;2024-02-14T00:53:46;9.27;;;2.70;;
22737;SDS011;11536;50.860;4.286;2024-02-14T00:56:12;6.88;;;2.65;;
22737;SDS011;11536;50.860;4.286;2024-02-14T00:58:37;6.70;;;2.33;;
22737;SDS011;11536;50.860;4.286;2024-02-14T01:01:04;9.23;;;2.80;;
22737;SDS011;11536;50.860;4.286;2024-02-14T01:03:30;10.90;;;3.53;;
22737;SDS011;11536;50.860;4.286;2024-02-14T01:05:56;8.57;;;2.88;;
22737;SDS011;11536;50.860;4.286;2024-02-14T01:08:22;6.93;;;3.00;;
22737;SDS011;11536;50.860;4.286;2024-02-14T01:10:47;9.70;;;3.00;;
22737;SDS011;11536;50.860;4.286;2024-02-14T01:13:15;9.38;;;3.10;;
22737;SDS011;11536;50.860;4.286;2024-02-14T01:15:41;8.63;;;3.05;;
22737;SDS011;11536;50.860;4.286;2024-02-14T01:18:06;11.32;;;2.83;;
22737;SDS011;11536;50.860;4.286;2024-02-14T01:20:32;6.93;;;2.83;;
22737;SDS011;11536;50.860;4.286;2024-02-14T01:22:57;8.13;;;2.83;;
22737;SDS011;11536;50.860;4.286;2024-02-14T01:25:24;9.35;;;2.85;;
22737;SDS011;11536;50.860;4.286;2024-02-14T01:27:51;7.72;;;2.85;;
22737;SDS011;11536;50.860;4.286;2024-02-14T01:30:17;8.27;;;2.60;;
22737;SDS011;11536;50.860;4.286;2024-02-14T01:32:43;7.80;;;2.83;;
22737;SDS011;11536;50.860;4.286;2024-02-14T01:35:09;9.77;;;3.08;;
22737;SDS011;11536;50.860;4.286;2024-02-14T01:37:34;8.57;;;2.80;;
22737;SDS011;11536;50.860;4.286;2024-02-14T01:40:00;8.23;;;2.80;;
22737;SDS011;11536;50.860;4.286;2024-02-14T01:42:26;7.18;;;2.90;;
22737;SDS011;11536;50.860;4.286;2024-02-14T01:44:52;7.38;;;2.97;;
22737;SDS011;11536;50.860;4.286;2024-02-14T01:47:19;8.07;;;2.97;;
22737;SDS011;11536;50.860;4.286;2024-02-14T01:49:46;9.18;;;2.92;;
22737;SDS011;11536;50.860;4.286;2024-02-14T01:52:12;8.93;;;2.55;;
22737;SDS011;11536;50.860;4.286;2024-02-14T01:54:39;7.68;;;2.67;;
22737;SDS011;11536;50.860;4.286;2024-02-14T01:57:05;7.57;;;2.67;;
22737;SDS011;11536;50.860;4.286;2024-02-14T01:59:31;8.82;;;3.10;;
22737;SDS011;11536;50.860;4.286;2024-02-14T02:01:59;5.90;;;2.70;;
22737;SDS011;11536;50.860;4.286;2024-02-14T02:04:25;8.35;;;2.53;;
22737;SDS011;11536;50.860;4.286;2024-02-14T02:06:51;7.43;;;2.67;;
22737;SDS011;11536;50.860;4.286;2024-02-14T02:09:21;6.72;;;2.50;;
22737;SDS011;11536;50.860;4.286;2024-02-14T02:11:48;6.57;;;2.60;;
22737;SDS011;11536;50.860;4.286;2024-02-14T02:14:14;7.20;;;2.20;;
22737;SDS011;11536;50.860;4.286;2024-02-14T02:16:41;6.28;;;2.70;;
22737;SDS011;11536;50.860;4.286;2024-02-14T02:19:07;6.65;;;2.65;;
22737;SDS011;11536;50.860;4.286;2024-02-14T02:21:34;6.53;;;2.53;;
22737;SDS011;11536;50.860;4.286;2024-02-14T02:24:01;7.03;;;3.00;;
22737;SDS011;11536;50.860;4.286;2024-02-14T02:26:27;7.53;;;2.40;;
22737;SDS011;11536;50.860;4.286;2024-02-14T02:28:52;6.70;;;2.60;;
22737;SDS011;11536;50.860;4.286;2024-02-14T02:31:19;4.80;;;2.10;;
22737;SDS011;11536;50.860;4.286;2024-02-14T02:33:45;7.10;;;2.90;;
22737;SDS011;11536;50.860;4.286;2024-02-14T02:36:12;6.38;;;2.90;;
22737;SDS011;11536;50.860;4.286;2024-02-14T02:38:38;6.65;;;2.45;;
22737;SDS011;11536;50.860;4.286;2024-02-14T02:41:04;5.43;;;2.53;;
22737;SDS011;11536;50.860;4.286;2024-02-14T02:43:33;7.47;;;2.15;;
22737;SDS011;11536;50.860;4.286;2024-02-14T02:45:59;6.25;;;2.67;;
22737;SDS011;11536;50.860;4.286;2024-02-14T02:48:25;5.55;;;2.45;;
22737;SDS011;11536;50.860;4.286;2024-02-14T02:50:51;7.13;;;2.65;;
22737;SDS011;11536;50.860;4.286;2024-02-14T02:53:18;7.03;;;2.80;;
22737;SDS011;11536;50.860;4.286;2024-02-14T02:55:44;6.38;;;2.63;;
22737;SDS011;11536;50.860;4.286;2024-02-14T02:58:10;5.93;;;2.38;;
22737;SDS011;11536;50.860;4.286;2024-02-14T03:00:36;5.68;;;2.30;;
22737;SDS011;11536;50.860;4.286;2024-02-14T03:03:02;7.05;;;2.67;;
22737;SDS011;11536;50.860;4.286;2024-02-14T03:05:29;6.07;;;2.63;;
22737;SDS011;11536;50.860;4.286;2024-02-14T03:07:58;5.70;;;2.30;;
22737;SDS011;11536;50.860;4.286;2024-02-14T03:10:24;8.55;;;2.63;;
22737;SDS011;11536;50.860;4.286;2024-02-14T03:12:50;6.25;;;2.47;;
22737;SDS011;11536;50.860;4.286;2024-02-14T03:15:16;6.68;;;2.60;;
22737;SDS011;11536;50.860;4.286;2024-02-14T03:17:43;6.75;;;2.65;;
22737;SDS011;11536;50.860;4.286;2024-02-14T03:20:09;5.28;;;2.60;;
22737;SDS011;11536;50.860;4.286;2024-02-14T03:22:39;5.28;;;2.22;;
22737;SDS011;11536;50.860;4.286;2024-02-14T03:25:09;6.32;;;2.75;;
22737;SDS011;11536;50.860;4.286;2024-02-14T03:27:39;7.00;;;2.58;;
22737;SDS011;11536;50.860;4.286;2024-02-14T03:30:05;7.38;;;2.78;;
22737;SDS011;11536;50.860;4.286;2024-02-14T03:32:31;9.00;;;2.90;;
22737;SDS011;11536;50.860;4.286;2024-02-14T03:34:57;7.45;;;2.80;;
22737;SDS011;11536;50.860;4.286;2024-02-14T03:37:23;5.60;;;2.67;;
22737;SDS011;11536;50.860;4.286;2024-02-14T03:39:49;7.28;;;2.92;;
22737;SDS011;11536;50.860;4.286;2024-02-14T03:42:15;7.68;;;2.45;;
22737;SDS011;11536;50.860;4.286;2024-02-14T03:44:41;5.32;;;2.50;;
22737;SDS011;11536;50.860;4.286;2024-02-14T03:47:08;7.95;;;2.90;;
22737;SDS011;11536;50.860;4.286;2024-02-14T03:49:34;5.95;;;2.65;;
22737;SDS011;11536;50.860;4.286;2024-02-14T03:52:00;8.60;;;3.17;;
22737;SDS011;11536;50.860;4.286;2024-02-14T03:54:26;6.25;;;2.80;;
22737;SDS011;11536;50.860;4.286;2024-02-14T03:56:52;6.13;;;3.08;;
22737;SDS011;11536;50.860;4.286;2024-02-14T03:59:18;7.07;;;2.97;;
22737;SDS011;11536;50.860;4.286;2024-02-14T04:01:49;6.43;;;2.80;;
22737;SDS011;11536;50.860;4.286;2024-02-14T04:04:15;5.88;;;2.83;;
22737;SDS011;11536;50.860;4.286;2024-02-14T04:06:42;9.25;;;3.13;;
22737;SDS011;11536;50.860;4.286;2024-02-14T04:09:10;7.75;;;2.92;;
22737;SDS011;11536;50.860;4.286;2024-02-14T04:11:36;7.47;;;3.03;;
22737;SDS011;11536;50.860;4.286;2024-02-14T04:14:01;9.48;;;3.42;;
22737;SDS011;11536;50.860;4.286;2024-02-14T04:16:27;8.68;;;3.00;;
22737;SDS011;11536;50.860;4.286;2024-02-14T04:18:52;6.53;;;2.78;;
22737;SDS011;11536;50.860;4.286;2024-02-14T04:21:20;5.53;;;2.50;;
22737;SDS011;11536;50.860;4.286;2024-02-14T04:23:45;6.47;;;3.00;;
22737;SDS011;11536;50.860;4.286;2024-02-14T04:26:19;6.22;;;3.05;;
22737;SDS011;11536;50.860;4.286;2024-02-14T04:28:45;7.22;;;3.30;;
22737;SDS011;11536;50.860;4.286;2024-02-14T04:31:11;5.97;;;2.85;;
22737;SDS011;11536;50.860;4.286;2024-02-14T04:33:36;6.60;;;3.13;;
22737;SDS011;11536;50.860;4.286;2024-02-14T04:36:02;5.53;;;2.70;;
22737;SDS011;11536;50.860;4.286;2024-02-14T04:38:30;6.32;;;3.10;;
22737;SDS011;11536;50.860;4.286;2024-02-14T04:40:56;6.70;;;3.25;;
22737;SDS011;11536;50.860;4.286;2024-02-14T04:43:23;8.32;;;3.17;;
22737;SDS011;11536;50.860;4.286;2024-02-14T04:45:49;7.28;;;3.20;;
22737;SDS011;11536;50.860;4.286;2024-02-14T04:48:15;7.15;;;2.83;;
22737;SDS011;11536;50.860;4.286;2024-02-14T04:50:41;8.88;;;3.10;;
22737;SDS011;11536;50.860;4.286;2024-02-14T04:53:07;8.73;;;3.17;;
22737;SDS011;11536;50.860;4.286;2024-02-14T04:55:32;7.63;;;3.65;;
22737;SDS011;11536;50.860;4.286;2024-02-14T04:57:58;6.97;;;3.13;;
22737;SDS011;11536;50.860;4.286;2024-02-14T05:00:24;9.02;;;3.20;;
22737;SDS011;11536;50.860;4.286;2024-02-14T05:02:50;7.20;;;3.40;;
22737;SDS011;11536;50.860;4.286;2024-02-14T05:05:16;9.70;;;3.38;;
22737;SDS011;11536;50.860;4.286;2024-02-14T05:07:41;8.02;;;3.28;;
22737;SDS011;11536;50.860;4.286;2024-02-14T05:10:07;7.20;;;3.25;;
22737;SDS011;11536;50.860;4.286;2024-02-14T05:12:33;9.40;;;3.60;;
22737;SDS011;11536;50.860;4.286;2024-02-14T05:14:58;7.55;;;3.17;;
22737;SDS011;11536;50.860;4.286;2024-02-14T05:17:24;8.65;;;2.80;;
22737;SDS011;11536;50.860;4.286;2024-02-14T05:19:49;8.70;;;3.38;;
22737;SDS011;11536;50.860;4.286;2024-02-14T05:22:15;5.78;;;2.85;;
22737;SDS011;11536;50.860;4.286;2024-02-14T05:24:41;7.22;;;3.35;;
22737;SDS011;11536;50.860;4.286;2024-02-14T05:27:07;9.25;;;3.63;;
22737;SDS011;11536;50.860;4.286;2024-02-14T05:29:33;6.93;;;2.95;;
22737;SDS011;11536;50.860;4.286;2024-02-14T05:31:58;8.15;;;3.53;;
22737;SDS011;11536;50.860;4.286;2024-02-14T05:34:24;6.75;;;3.08;;
22737;SDS011;11536;50.860;4.286;2024-02-14T05:36:50;7.30;;;3.00;;
22737;SDS011;11536;50.860;4.286;2024-02-14T05:39:17;6.95;;;2.97;;
22737;SDS011;11536;50.860;4.286;2024-02-14T05:41:44;7.43;;;3.08;;
22737;SDS011;11536;50.860;4.286;2024-02-14T05:44:09;6.68;;;3.22;;
22737;SDS011;11536;50.860;4.286;2024-02-14T05:46:35;5.32;;;2.78;;
22737;SDS011;11536;50.860;4.286;2024-02-14T05:49:00;7.13;;;3.35;;
22737;SDS011;11536;50.860;4.286;2024-02-14T05:51:26;9.10;;;3.10;;
22737;SDS011;11536;50.860;4.286;2024-02-14T05:53:52;6.53;;;3.10;;
22737;SDS011;11536;50.860;4.286;2024-02-14T05:56:17;8.05;;;2.95;;
22737;SDS011;11536;50.860;4.286;2024-02-14T05:58:43;6.03;;;2.75;;
22737;SDS011;11536;50.860;4.286;2024-02-14T06:01:09;8.00;;;3.25;;
22737;SDS011;11536;50.860;4.286;2024-02-14T06:03:34;8.50;;;3.28;;
22737;SDS011;11536;50.860;4.286;2024-02-14T06:06:00;8.63;;;3.33;;
22737;SDS011;11536;50.860;4.286;2024-02-14T06:08:26;9.43;;;3.17;;
22737;SDS011;11536;50.860;4.286;2024-02-14T06:10:52;8.95;;;2.80;;
22737;SDS011;11536;50.860;4.286;2024-02-14T06:13:18;9.40;;;3.30;;
22737;SDS011;11536;50.860;4.286;2024-02-14T06:15:44;10.00;;;3.88;;
22737;SDS011;11536;50.860;4.286;2024-02-14T06:18:10;10.00;;;2.97;;
22737;SDS011;11536;50.860;4.286;2024-02-14T06:20:36;8.27;;;2.80;;
22737;SDS011;11536;50.860;4.286;2024-02-14T06:23:02;7.93;;;3.55;;
22737;SDS011;11536;50.860;4.286;2024-02-14T06:25:28;10.10;;;2.67;;
22737;SDS011;11536;50.860;4.286;2024-02-14T06:27:54;5.95;;;2.50;;
22737;SDS011;11536;50.860;4.286;2024-02-14T06:30:20;8.50;;;3.10;;
22737;SDS011;11536;50.860;4.286;2024-02-14T06:32:45;9.80;;;2.92;;
22737;SDS011;11536;50.860;4.286;2024-02-14T06:35:11;6.55;;;3.05;;
22737;SDS011;11536;50.860;4.286;2024-02-14T06:37:37;10.60;;;3.20;;
22737;SDS011;11536;50.860;4.286;2024-02-14T06:40:02;9.88;;;2.95;;
22737;SDS011;11536;50.860;4.286;2024-02-14T06:42:28;8.10;;;3.00;;
22737;SDS011;11536;50.860;4.286;2024-02-14T06:44:54;7.85;;;3.55;;
22737;SDS011;11536;50.860;4.286;2024-02-14T06:47:19;7.50;;;2.60;;
22737;SDS011;11536;50.860;4.286;2024-02-14T06:49:45;12.07;;;3.38;;
22737;SDS011;11536;50.860;4.286;2024-02-14T06:52:10;7.93;;;2.97;;
22737;SDS011;11536;50.860;4.286;2024-02-14T06:54:36;8.65;;;2.92;;
22737;SDS011;11536;50.860;4.286;2024-02-14T06:57:02;6.18;;;2.90;;
22737;SDS011;11536;50.860;4.286;2024-02-14T06:59:27;8.85;;;2.90;;
22737;SDS011;11536;50.860;4.286;2024-02-14T07:01:53;8.90;;;3.35;;
22737;SDS011;11536;50.860;4.286;2024-02-14T07:04:20;10.68;;;3.75;;
22737;SDS011;11536;50.860;4.286;2024-02-14T07:06:50;12.60;;;3.13;;
22737;SDS011;11536;50.860;4.286;2024-02-14T07:09:19;10.43;;;3.38;;
22737;SDS011;11536;50.860;4.286;2024-02-14T07:11:45;8.02;;;3.03;;
22737;SDS011;11536;50.860;4.286;2024-02-14T07:14:14;9.60;;;3.05;;
22737;SDS011;11536;50.860;4.286;2024-02-14T07:16:39;11.07;;;3.22;;
22737;SDS011;11536;50.860;4.286;2024-02-14T07:19:06;10.75;;;3.00;;
22737;SDS011;11536;50.860;4.286;2024-02-14T07:21:31;12.73;;;3.65;;
22737;SDS011;11536;50.860;4.286;2024-02-14T07:23:58;10.43;;;3.45;;
22737;SDS011;11536;50.860;4.286;2024-02-14T07:26:23;9.75;;;2.97;;
22737;SDS011;11536;50.860;4.286;2024-02-14T07:28:50;8.77;;;2.70;;
22737;SDS011;11536;50.860;4.286;2024-02-14T07:31:16;11.13;;;3.78;;
22737;SDS011;11536;50.860;4.286;2024-02-14T07:33:42;8.15;;;2.80;;
22737;SDS011;11536;50.860;4.286;2024-02-14T07:36:09;7.85;;;2.92;;
22737;SDS011;11536;50.860;4.286;2024-02-14T07:38:34;8.93;;;3.15;;
22737;SDS011;11536;50.860;4.286;2024-02-14T07:41:00;11.88;;;3.00;;
22737;SDS011;11536;50.860;4.286;2024-02-14T07:43:26;8.95;;;2.72;;
22737;SDS011;11536;50.860;4.286;2024-02-14T07:45:51;8.45;;;3.28;;
22737;SDS011;11536;50.860;4.286;2024-02-14T07:48:17;9.32;;;3.58;;
22737;SDS011;11536;50.860;4.286;2024-02-14T07:50:42;10.13;;;3.33;;
22737;SDS011;11536;50.860;4.286;2024-02-14T07:53:08;13.88;;;3.53;;
22737;SDS011;11536;50.860;4.286;2024-02-14T07:55:33;9.32;;;3.30;;
22737;SDS011;11536;50.860;4.286;2024-02-14T07:57:59;12.38;;;3.53;;
22737;SDS011;11536;50.860;4.286;2024-02-14T08:00:25;12.00;;;3.35;;
22737;SDS011;11536;50.860;4.286;2024-02-14T08:02:51;9.43;;;3.30;;
22737;SDS011;11536;50.860;4.286;2024-02-14T08:05:16;13.07;;;3.35;;
22737;SDS011;11536;50.860;4.286;2024-02-14T08:07:44;10.23;;;3.72;;
22737;SDS011;11536;50.860;4.286;2024-02-14T08:10:10;8.45;;;3.35;;
22737;SDS011;11536;50.860;4.286;2024-02-14T08:12:36;11.73;;;3.70;;
22737;SDS011;11536;50.860;4.286;2024-02-14T08:15:01;13.02;;;3.50;;
22737;SDS011;11536;50.860;4.286;2024-02-14T08:17:30;8.82;;;3.35;;
22737;SDS011;11536;50.860;4.286;2024-02-14T08:19:56;11.90;;;3.67;;
22737;SDS011;11536;50.860;4.286;2024-02-14T08:22:22;14.18;;;4.63;;
22737;SDS011;11536;50.860;4.286;2024-02-14T08:24:48;14.30;;;4.03;;
22737;SDS011;11536;50.860;4.286;2024-02-14T08:27:14;13.48;;;4.38;;
22737;SDS011;11536;50.860;4.286;2024-02-14T08:29:39;16.15;;;4.53;;
22737;SDS011;11536;50.860;4.286;2024-02-14T08:32:05;11.88;;;3.72;;
22737;SDS011;11536;50.860;4.286;2024-02-14T08:34:31;13.60;;;4.07;;
22737;SDS011;11536;50.860;4.286;2024-02-14T08:36:56;12.25;;;4.30;;
22737;SDS011;11536;50.860;4.286;2024-02-14T08:39:22;15.50;;;4.55;;
22737;SDS011;11536;50.860;4.286;2024-02-14T08:41:47;14.05;;;4.40;;
22737;SDS011;11536;50.860;4.286;2024-02-14T08:44:13;12.93;;;4.47;;
22737;SDS011;11536;50.860;4.286;2024-02-14T08:46:39;9.48;;;4.22;;
22737;SDS011;11536;50.860;4.286;2024-02-14T08:49:07;13.52;;;4.15;;
22737;SDS011;11536;50.860;4.286;2024-02-14T08:51:37;17.42;;;4.80;;
22737;SDS011;11536;50.860;4.286;2024-02-14T08:54:06;11.73;;;3.85;;
22737;SDS011;11536;50.860;4.286;2024-02-14T08:56:32;9.18;;;3.83;;
22737;SDS011;11536;50.860;4.286;2024-02-14T08:59:01;12.50;;;4.05;;
22737;SDS011;11536;50.860;4.286;2024-02-14T09:01:28;12.88;;;4.20;;
22737;SDS011;11536;50.860;4.286;2024-02-14T09:03:54;10.43;;;4.35;;
22737;SDS011;11536;50.860;4.286;2024-02-14T09:06:20;13.32;;;4.15;;
22737;SDS011;11536;50.860;4.286;2024-02-14T09:08:46;11.45;;;3.78;;
22737;SDS011;11536;50.860;4.286;2024-02-14T09:11:12;8.75;;;3.88;;
22737;SDS011;11536;50.860;4.286;2024-02-14T09:13:38;10.45;;;3.83;;
22737;SDS011;11536;50.860;4.286;2024-02-14T09:16:05;9.30;;;3.22;;
22737;SDS011;11536;50.860;4.286;2024-02-14T09:18:32;12.63;;;4.50;;
22737;SDS011;11536;50.860;4.286;2024-02-14T09:20:58;11.02;;;4.00;;
22737;SDS011;11536;50.860;4.286;2024-02-14T09:23:24;10.32;;;3.97;;
22737;SDS011;11536;50.860;4.286;2024-02-14T09:25:49;11.98;;;4.07;;
22737;SDS011;11536;50.860;4.286;2024-02-14T09:28:16;10.85;;;4.03;;
22737;SDS011;11536;50.860;4.286;2024-02-14T09:30:42;11.27;;;3.75;;
22737;SDS011;11536;50.860;4.286;2024-02-14T09:33:07;9.90;;;4.22;;
22737;SDS011;11536;50.860;4.286;2024-02-14T09:35:33;10.02;;;4.10;;
22737;SDS011;11536;50.860;4.286;2024-02-14T09:38:00;12.18;;;3.92;;
22737;SDS011;11536;50.860;4.286;2024-02-14T09:40:26;10.25;;;3.63;;
22737;SDS011;11536;50.860;4.286;2024-02-14T09:42:55;12.07;;;4.07;;
22737;SDS011;11536;50.860;4.286;2024-02-14T09:45:25;10.02;;;4.30;;
22737;SDS011;11536;50.860;4.286;2024-02-14T09:47:52;10.25;;;3.97;;
22737;SDS011;11536;50.860;4.286;2024-02-14T09:50:18;10.82;;;3.97;;
22737;SDS011;11536;50.860;4.286;2024-02-14T09:52:46;11.00;;;3.60;;
22737;SDS011;11536;50.860;4.286;2024-02-14T09:55:14;11.15;;;3.58;;
22737;SDS011;11536;50.860;4.286;2024-02-14T09:57:41;10.02;;;3.55;;
22737;SDS011;11536;50.860;4.286;2024-02-14T10:00:11;10.05;;;4.00;;
22737;SDS011;11536;50.860;4.286;2024-02-14T10:02:40;9.63;;;4.03;;
22737;SDS011;11536;50.860;4.286;2024-02-14T10:05:06;7.40;;;3.40;;
22737;SDS011;11536;50.860;4.286;2024-02-14T10:07:42;10.55;;;3.30;;
22737;SDS011;11536;50.860;4.286;2024-02-14T10:10:08;12.57;;;3.55;;
22737;SDS011;11536;50.860;4.286;2024-02-14T10:12:35;7.65;;;3.30;;
22737;SDS011;11536;50.860;4.286;2024-02-14T10:15:01;8.95;;;3.28;;
22737;SDS011;11536;50.860;4.286;2024-02-14T10:17:27;7.30;;;3.35;;
22737;SDS011;11536;50.860;4.286;2024-02-14T10:19:56;8.65;;;2.60;;
22737;SDS011;11536;50.860;4.286;2024-02-14T10:22:36;7.82;;;3.30;;
22737;SDS011;11536;50.860;4.286;2024-02-14T10:25:04;6.25;;;2.55;;
22737;SDS011;11536;50.860;4.286;2024-02-14T10:30:12;7.72;;;2.67;;
22737;SDS011;11536;50.860;4.286;2024-02-14T10:32:39;5.40;;;2.22;;
22737;SDS011;11536;50.860;4.286;2024-02-14T10:35:05;7.50;;;3.17;;
22737;SDS011;11536;50.860;4.286;2024-02-14T10:37:33;5.57;;;2.47;;
22737;SDS011;11536;50.860;4.286;2024-02-14T10:40:01;5.88;;;2.67;;
22737;SDS011;11536;50.860;4.286;2024-02-14T10:42:31;8.80;;;3.08;;
22737;SDS011;11536;50.860;4.286;2024-02-14T10:44:57;10.27;;;3.55;;
22737;SDS011;11536;50.860;4.286;2024-02-14T10:47:24;10.02;;;3.28;;
22737;SDS011;11536;50.860;4.286;2024-02-14T10:49:57;7.60;;;3.17;;
22737;SDS011;11536;50.860;4.286;2024-02-14T10:52:31;9.77;;;3.33;;
22737;SDS011;11536;50.860;4.286;2024-02-14T10:54:59;7.25;;;2.67;;
22737;SDS011;11536;50.860;4.286;2024-02-14T10:57:26;7.50;;;3.08;;
22737;SDS011;11536;50.860;4.286;2024-02-14T10:59:54;7.05;;;2.65;;
22737;SDS011;11536;50.860;4.286;2024-02-14T11:02:20;7.47;;;2.83;;
22737;SDS011;11536;50.860;4.286;2024-02-14T11:04:47;9.32;;;2.97;;
22737;SDS011;11536;50.860;4.286;2024-02-14T11:07:18;6.35;;;2.38;;
22737;SDS011;11536;50.860;4.286;2024-02-14T11:09:45;7.75;;;2.53;;
22737;SDS011;11536;50.860;4.286;2024-02-14T11:12:10;7.07;;;2.95;;
22737;SDS011;11536;50.860;4.286;2024-02-14T11:14:36;5.95;;;2.33;;
22737;SDS011;11536;50.860;4.286;2024-02-14T11:17:04;6.43;;;2.45;;
22737;SDS011;11536;50.860;4.286;2024-02-14T11:19:34;6.70;;;2.22;;
22737;SDS011;11536;50.860;4.286;2024-02-14T11:22:19;5.60;;;1.92;;
22737;SDS011;11536;50.860;4.286;2024-02-14T11:24:46;5.45;;;2.22;;
22737;SDS011;11536;50.860;4.286;2024-02-14T11:27:13;4.40;;;1.88;;
22737;SDS011;11536;50.860;4.286;2024-02-14T11:29:39;4.28;;;1.77;;
22737;SDS011;11536;50.860;4.286;2024-02-14T11:32:08;5.88;;;2.50;;
22737;SDS011;11536;50.860;4.286;2024-02-14T11:34:36;4.50;;;1.98;;
22737;SDS011;11536;50.860;4.286;2024-02-14T11:37:01;6.55;;;2.47;;
22737;SDS011;11536;50.860;4.286;2024-02-14T11:39:28;6.05;;;1.90;;
22737;SDS011;11536;50.860;4.286;2024-02-14T11:41:53;4.32;;;2.03;;
22737;SDS011;11536;50.860;4.286;2024-02-14T11:44:23;7.93;;;2.70;;
22737;SDS011;11536;50.860;4.286;2024-02-14T11:46:48;5.32;;;2.20;;
22737;SDS011;11536;50.860;4.286;2024-02-14T11:49:14;5.78;;;2.15;;
22737;SDS011;11536;50.860;4.286;2024-02-14T11:51:41;10.27;;;2.50;;
22737;SDS011;11536;50.860;4.286;2024-02-14T11:54:07;7.07;;;2.50;;
22737;SDS011;11536;50.860;4.286;2024-02-14T11:56:35;6.82;;;2.60;;
22737;SDS011;11536;50.860;4.286;2024-02-14T11:59:02;4.70;;;1.90;;
22737;SDS011;11536;50.860;4.286;2024-02-14T12:01:30;7.68;;;3.00;;
22737;SDS011;11536;50.860;4.286;2024-02-14T12:03:59;8.70;;;2.83;;
22737;SDS011;11536;50.860;4.286;2024-02-14T12:06:27;7.57;;;2.47;;
22737;SDS011;11536;50.860;4.286;2024-02-14T12:08:54;4.95;;;2.15;;
22737;SDS011;11536;50.860;4.286;2024-02-14T12:11:21;6.45;;;2.70;;
22737;SDS011;11536;50.860;4.286;2024-02-14T12:13:50;7.55;;;2.42;;
22737;SDS011;11536;50.860;4.286;2024-02-14T12:16:19;6.47;;;2.50;;
22737;SDS011;11536;50.860;4.286;2024-02-14T12:18:46;9.80;;;2.78;;
22737;SDS011;11536;50.860;4.286;2024-02-14T12:21:13;6.47;;;2.55;;
22737;SDS011;11536;50.860;4.286;2024-02-14T12:23:42;4.88;;;2.10;;
22737;SDS011;11536;50.860;4.286;2024-02-14T12:26:11;5.35;;;2.45;;
22737;SDS011;11536;50.860;4.286;2024-02-14T12:28:45;4.68;;;2.22;;
22737;SDS011;11536;50.860;4.286;2024-02-14T12:31:12;6.40;;;2.63;;
22737;SDS011;11536;50.860;4.286;2024-02-14T12:33:47;6.03;;;2.15;;
22737;SDS011;11536;50.860;4.286;2024-02-14T12:36:14;4.95;;;2.33;;
22737;SDS011;11536;50.860;4.286;2024-02-14T12:38:40;6.43;;;2.10;;
22737;SDS011;11536;50.860;4.286;2024-02-14T12:41:05;7.60;;;2.50;;
22737;SDS011;11536;50.860;4.286;2024-02-14T12:43:31;7.20;;;2.55;;
22737;SDS011;11536;50.860;4.286;2024-02-14T12:45:57;6.97;;;2.55;;
22737;SDS011;11536;50.860;4.286;2024-02-14T12:48:23;7.22;;;2.45;;
22737;SDS011;11536;50.860;4.286;2024-02-14T12:50:53;5.18;;;2.53;;
22737;SDS011;11536;50.860;4.286;2024-02-14T12:53:19;5.68;;;2.22;;
22737;SDS011;11536;50.860;4.286;2024-02-14T12:55:46;8.38;;;2.22;;
22737;SDS011;11536;50.860;4.286;2024-02-14T12:58:12;6.93;;;2.20;;
22737;SDS011;11536;50.860;4.286;2024-02-14T13:00:38;6.55;;;2.30;;
22737;SDS011;11536;50.860;4.286;2024-02-14T13:03:03;7.07;;;2.30;;
22737;SDS011;11536;50.860;4.286;2024-02-14T13:05:30;7.00;;;2.15;;
22737;SDS011;11536;50.860;4.286;2024-02-14T13:07:55;5.97;;;2.40;;
22737;SDS011;11536;50.860;4.286;2024-02-14T13:10:21;4.88;;;2.15;;
22737;SDS011;11536;50.860;4.286;2024-02-14T13:12:47;6.03;;;1.92;;
22737;SDS011;11536;50.860;4.286;2024-02-14T13:15:12;4.60;;;2.00;;
22737;SDS011;11536;50.860;4.286;2024-02-14T13:17:38;4.55;;;1.83;;
22737;SDS011;11536;50.860;4.286;2024-02-14T13:20:04;5.15;;;2.13;;
22737;SDS011;11536;50.860;4.286;2024-02-14T13:22:30;7.32;;;1.73;;
22737;SDS011;11536;50.860;4.286;2024-02-14T13:24:57;4.85;;;1.92;;
22737;SDS011;11536;50.860;4.286;2024-02-14T13:27:25;6.82;;;1.95;;
22737;SDS011;11536;50.860;4.286;2024-02-14T13:29:52;6.13;;;1.70;;
22737;SDS011;11536;50.860;4.286;2024-02-14T13:32:17;4.70;;;1.55;;
22737;SDS011;11536;50.860;4.286;2024-02-14T13:34:43;4.15;;;1.70;;
22737;SDS011;11536;50.860;4.286;2024-02-14T13:37:09;5.55;;;1.85;;
22737;SDS011;11536;50.860;4.286;2024-02-14T13:39:35;6.05;;;1.67;;
22737;SDS011;11536;50.860;4.286;2024-02-14T13:42:00;4.15;;;1.58;;
22737;SDS011;11536;50.860;4.286;2024-02-14T13:44:26;4.55;;;1.60;;
22737;SDS011;11536;50.860;4.286;2024-02-14T13:46:52;3.22;;;1.40;;
22737;SDS011;11536;50.860;4.286;2024-02-14T13:49:19;5.10;;;1.95;;
22737;SDS011;11536;50.860;4.286;2024-02-14T13:51:51;4.43;;;1.65;;
22737;SDS011;11536;50.860;4.286;2024-02-14T13:54:19;6.05;;;1.38;;
22737;SDS011;11536;50.860;4.286;2024-02-14T13:56:46;5.78;;;1.75;;
22737;SDS011;11536;50.860;4.286;2024-02-14T13:59:15;4.10;;;1.33;;
22737;SDS011;11536;50.860;4.286;2024-02-14T14:01:41;4.70;;;1.38;;
22737;SDS011;11536;50.860;4.286;2024-02-14T14:04:07;5.38;;;1.80;;
22737;SDS011;11536;50.860;4.286;2024-02-14T14:06:32;5.82;;;1.35;;
22737;SDS011;11536;50.860;4.286;2024-02-14T14:08:59;4.50;;;1.38;;
22737;SDS011;11536;50.860;4.286;2024-02-14T14:11:25;5.93;;;1.80;;
22737;SDS011;11536;50.860;4.286;2024-02-14T14:13:51;6.28;;;1.40;;
22737;SDS011;11536;50.860;4.286;2024-02-14T14:16:16;3.25;;;1.35;;
22737;SDS011;11536;50.860;4.286;2024-02-14T14:18:42;4.25;;;1.90;;
22737;SDS011;11536;50.860;4.286;2024-02-14T14:21:08;6.00;;;1.60;;
22737;SDS011;11536;50.860;4.286;2024-02-14T14:23:33;3.30;;;1.35;;
22737;SDS011;11536;50.860;4.286;2024-02-14T14:25:59;4.38;;;1.60;;
22737;SDS011;11536;50.860;4.286;2024-02-14T14:28:26;7.07;;;1.58;;
22737;SDS011;11536;50.860;4.286;2024-02-14T14:30:53;4.90;;;1.60;;
22737;SDS011;11536;50.860;4.286;2024-02-14T14:33:20;3.58;;;1.33;;
22737;SDS011;11536;50.860;4.286;2024-02-14T14:35:46;4.82;;;1.60;;
22737;SDS011;11536;50.860;4.286;2024-02-14T14:38:14;4.57;;;1.52;;
22737;SDS011;11536;50.860;4.286;2024-02-14T14:40:40;5.50;;;2.25;;
22737;SDS011;11536;50.860;4.286;2024-02-14T14:43:05;4.85;;;1.60;;